Current | Forecast
Updated: 10:00 PM JST on June 26, 2017
Observed at Miho AB, Japan
Temperature 70°F
Humidity 73%
Dew Point 61°F
Wind ENE at 14 mph
Pressure 29.83 in (Steady)
Conditions Mostly Cloudy
Visibility 6.2 miles
UV 0 out of 16
Clouds (FEW) : 1000 ft
Scattered Clouds (SCT) : 8000 ft
Mostly Cloudy (BKN) : 13000 ft
Yesterday's Maximum 73°F
Yesterday's Minimum 68°F approx.
Yesterday's Cooling Degree Days 6 approx.
Sunrise4:53 AM JST
Sunset7:26 PM JST
Moon Rise7:03 AM JST
Moon Set9:18 PM JST
Moon PhaseMoon Phase
Waxing Crescent
Raw METARMETAR RJOH 261300Z 06012KT 9999 FEW010 SCT080 BKN130 21/16 Q1010


Monday
. High: 78° F.
Tuesday
. High: 75° F.
Wednesday
. High: 73° F.
Thursday
. High: 77° F.
Friday
. High: 80° F.
Saturday
. High: 77° F.
Sunday
. High: 77° F.
Monday
. High: 78° F.

Units: English | Metric

Find the Weather for any City, State or Zipcode, or Country:

U.S. State List | Severe Weather | Tropical Storms | Ski Conditions
United States | Canada | Central America | South America | Asia | Europe | Australia | Africa | Islands

Weather Underground

© Copyright 2017
The Weather Company, LLC